Time;durP1;ratioP1;P1;durP2;ratioP2;P2;SDS_P1;SDS_P2;PMS_P1;PMS_P2;Temp;Humidity;BMP_temperature;BMP_pressure;BME280_temperature;BME280_humidity;BME280_pressure;Samples;Min_cycle;Max_cycle;Signal;HPM_P1;HPM_P2
2023/06/05 00:00:23;;;;;;;9.65;8.35;;;;;;;14.57;90.04;95370.81;5080838;28;20193;-74
2023/06/05 00:02:51;;;;;;;8.82;7.90;;;;;;;14.56;90.17;95370.03;5098353;28;20280;-73
2023/06/05 00:05:18;;;;;;;9.38;7.93;;;;;;;14.58;89.95;95370.44;5081203;28;20291;-73
2023/06/05 00:07:46;;;;;;;9.55;8.60;;;;;;;14.55;89.62;95373.16;5078614;28;20241;-73
2023/06/05 00:10:14;;;;;;;8.50;7.88;;;;;;;14.57;90.21;95365.28;5079578;28;20597;-72
2023/06/05 00:12:42;;;;;;;8.82;8.02;;;;;;;14.58;90.12;95370.44;5078574;28;20207;-72
2023/06/05 00:15:11;;;;;;;9.23;8.27;;;;;;;14.57;89.90;95373.59;5078151;28;20177;-73
2023/06/05 00:17:39;;;;;;;9.27;8.40;;;;;;;14.56;89.90;95371.97;5078345;28;20207;-73
2023/06/05 00:20:09;;;;;;;8.77;7.95;;;;;;;14.54;89.72;95369.59;5078147;28;20208;-73
2023/06/05 00:22:36;;;;;;;8.73;7.95;;;;;;;14.45;89.51;95364.28;5077797;28;20248;-72
2023/06/05 00:25:12;;;;;;;8.30;7.55;;;;;;;14.37;89.33;95370.84;5078041;28;20197;-72
2023/06/05 00:27:43;;;;;;;9.68;8.63;;;;;;;14.36;89.11;95374.00;5078647;28;20193;-72
2023/06/05 00:30:16;;;;;;;8.38;7.68;;;;;;;14.33;89.93;95374.72;5078871;28;20189;-72
2023/06/05 00:32:44;;;;;;;8.75;8.00;;;;;;;14.34;90.66;95368.84;5078030;28;20200;-72
2023/06/05 00:35:12;;;;;;;9.60;8.80;;;;;;;14.39;91.13;95373.28;5078584;28;20212;-72
2023/06/05 00:37:40;;;;;;;9.05;8.07;;;;;;;14.43;90.94;95374.13;5078897;28;20188;-72
2023/06/05 00:40:12;;;;;;;9.30;8.32;;;;;;;14.43;91.18;95374.94;5078068;28;20204;-73
2023/06/05 00:42:40;;;;;;;9.55;8.40;;;;;;;14.45;90.98;95375.38;5078268;28;20706;-72
2023/06/05 00:45:09;;;;;;;8.80;8.07;;;;;;;14.49;91.47;95364.31;5077616;28;20208;-73
2023/06/05 00:47:41;;;;;;;8.90;8.00;;;;;;;14.51;91.15;95362.00;5077533;28;20703;-72
2023/06/05 00:50:14;;;;;;;8.70;8.00;;;;;;;14.48;90.58;95361.91;5077692;28;20258;-72
2023/06/05 00:52:43;;;;;;;8.60;7.80;;;;;;;14.46;90.67;95359.50;5078451;28;20200;-72
2023/06/05 00:55:11;;;;;;;10.50;7.88;;;;;;;14.47;90.41;95366.66;5077620;28;20185;-72
2023/06/05 00:57:39;;;;;;;9.30;7.95;;;;;;;14.50;90.24;95363.19;5076786;28;20250;-73
2023/06/05 01:00:12;;;;;;;9.38;8.57;;;;;;;14.52;90.36;95354.47;5077689;28;20221;-72
2023/06/05 01:02:42;;;;;;;9.52;8.77;;;;;;;14.53;90.85;95356.09;5076422;28;20235;-72
2023/06/05 01:05:13;;;;;;;9.40;8.60;;;;;;;14.56;90.93;95355.31;5076585;28;20196;-73
2023/06/05 01:07:42;;;;;;;8.80;7.95;;;;;;;14.51;90.54;95344.53;5086103;28;20275;-73
2023/06/05 01:10:11;;;;;;;9.35;8.45;;;;;;;14.48;90.63;95350.81;5097262;28;20181;-73
2023/06/05 01:12:43;;;;;;;8.55;7.75;;;;;;;14.48;90.82;95345.25;5097320;28;20184;-73
2023/06/05 01:15:12;;;;;;;8.70;8.00;;;;;;;14.39;89.87;95339.97;5097522;28;20184;-73
2023/06/05 01:17:42;;;;;;;8.43;7.72;;;;;;;14.32;89.81;95334.28;5078986;28;20204;-73
2023/06/05 01:20:12;;;;;;;8.63;7.82;;;;;;;14.31;90.42;95339.06;5079078;28;20215;-72
2023/06/05 01:22:40;;;;;;;8.07;7.38;;;;;;;14.33;90.58;95338.66;5097224;28;20227;-72
2023/06/05 01:25:11;;;;;;;8.52;7.75;;;;;;;14.35;90.62;95333.56;5095662;28;20187;-73
2023/06/05 01:27:43;;;;;;;9.00;8.20;;;;;;;14.35;90.59;95331.59;5096363;28;20257;-73
2023/06/05 01:30:16;;;;;;;9.57;8.60;;;;;;;14.34;90.63;95326.38;5078260;28;20192;-72
2023/06/05 01:32:53;;;;;;;9.02;8.20;;;;;;;14.36;90.40;95324.06;5096628;28;20185;-72
2023/06/05 01:35:27;;;;;;;9.13;8.25;;;;;;;14.35;90.32;95323.25;5096529;28;20211;-73
2023/06/05 01:37:59;;;;;;;9.00;8.20;;;;;;;14.35;90.43;95320.47;5096739;28;20211;-73
2023/06/05 01:40:31;;;;;;;9.43;8.23;;;;;;;14.33;90.00;95322.81;5096434;28;20184;-73
2023/06/05 01:43:00;;;;;;;8.20;7.53;;;;;;;14.31;90.04;95329.94;5096015;28;20216;-73
2023/06/05 01:45:28;;;;;;;9.00;8.18;;;;;;;14.28;89.74;95322.34;5079429;28;20227;-74
2023/06/05 01:47:56;;;;;;;9.13;8.20;;;;;;;14.26;89.73;95328.25;5078731;28;20212;-73
2023/06/05 01:50:24;;;;;;;8.38;7.68;;;;;;;14.21;89.53;95323.00;5096500;28;20215;-72
2023/06/05 01:52:54;;;;;;;11.55;8.90;;;;;;;14.16;89.89;95328.84;5078473;28;20185;-73
2023/06/05 01:55:26;;;;;;;9.13;8.40;;;;;;;14.16;89.81;95324.13;5095926;28;20275;-73
2023/06/05 01:57:55;;;;;;;8.90;8.10;;;;;;;14.15;89.83;95328.06;5096404;28;20188;-73
2023/06/05 02:00:22;;;;;;;8.95;8.05;;;;;;;14.19;90.10;95330.91;5078213;28;20196;-73
2023/06/05 02:02:53;;;;;;;9.77;8.35;;;;;;;14.14;90.12;95320.91;5095617;28;20204;-73
2023/06/05 02:05:20;;;;;;;8.93;8.13;;;;;;;14.13;90.40;95326.84;5079312;28;20220;-74
2023/06/05 02:07:48;;;;;;;8.88;8.00;;;;;;;14.15;90.73;95327.25;5076826;28;20275;-73
2023/06/05 02:10:18;;;;;;;10.85;8.27;;;;;;;14.16;90.60;95324.13;5076753;28;20617;-73
2023/06/05 02:12:49;;;;;;;9.57;8.68;;;;;;;14.15;90.39;95330.84;5076268;28;20299;-73
2023/06/05 02:15:19;;;;;;;10.07;9.18;;;;;;;14.15;90.11;95327.25;5076138;28;20196;-74
2023/06/05 02:17:50;;;;;;;10.43;9.45;;;;;;;14.13;90.38;95319.31;5076048;28;20192;-73
2023/06/05 02:20:20;;;;;;;8.77;8.07;;;;;;;14.08;90.16;95327.94;5076584;28;20185;-73
2023/06/05 02:22:49;;;;;;;10.57;9.00;;;;;;;14.05;90.55;95320.38;5076162;28;20209;-73
2023/06/05 02:25:18;;;;;;;8.93;8.13;;;;;;;14.05;90.87;95327.88;5075513;28;20550;-73
2023/06/05 02:27:46;;;;;;;9.95;8.07;;;;;;;14.00;90.53;95322.63;5075127;28;20197;-74
2023/06/05 02:30:14;;;;;;;9.55;8.75;;;;;;;13.95;90.11;95332.06;5075932;28;20517;-73
2023/06/05 02:32:44;;;;;;;8.30;7.60;;;;;;;13.95;90.36;95330.09;5075000;28;20203;-74
2023/06/05 02:35:13;;;;;;;9.65;8.55;;;;;;;13.93;90.54;95326.88;5075949;28;20181;-73
2023/06/05 02:37:43;;;;;;;10.00;9.10;;;;;;;13.95;91.06;95326.53;5079175;28;20196;-73
2023/06/05 02:40:12;;;;;;;9.07;8.32;;;;;;;13.89;90.32;95325.22;5078863;28;20208;-73
2023/06/05 02:42:41;;;;;;;9.02;8.13;;;;;;;13.87;90.65;95328.38;5079269;28;20231;-73
2023/06/05 02:45:09;;;;;;;9.55;8.65;;;;;;;13.92;91.38;95327.25;5079834;28;20215;-73
2023/06/05 02:47:38;;;;;;;9.30;8.50;;;;;;;13.94;90.83;95322.94;5078669;28;20199;-74
2023/06/05 02:50:10;;;;;;;10.07;9.18;;;;;;;13.96;90.58;95323.38;5078902;28;20189;-73
2023/06/05 02:52:39;;;;;;;10.00;9.10;;;;;;;13.97;90.08;95324.97;5078915;28;20197;-73
2023/06/05 02:55:11;;;;;;;10.40;9.23;;;;;;;13.97;90.07;95322.19;5079263;28;20195;-73
2023/06/05 02:57:41;;;;;;;9.73;8.90;;;;;;;13.96;89.67;95326.13;5078797;28;20233;-73
2023/06/05 03:00:14;;;;;;;10.15;9.25;;;;;;;13.89;88.93;95331.56;5079530;28;20215;-73
2023/06/05 03:02:48;;;;;;;10.25;9.05;;;;;;;13.85;89.29;95333.47;5079403;28;20216;-74
2023/06/05 03:05:24;;;;;;;10.85;9.85;;;;;;;13.85;89.62;95335.44;5077756;28;20265;-76
2023/06/05 03:07:54;;;;;;;11.23;10.13;;;;;;;13.86;89.73;95348.13;5088923;28;20664;-71
2023/06/05 03:10:21;;;;;;;12.18;10.20;;;;;;;13.84;90.40;95345.72;5097634;28;20678;-71
2023/06/05 03:12:49;;;;;;;11.23;10.13;;;;;;;13.85;90.80;95343.75;5081324;28;20283;-71
2023/06/05 03:15:18;;;;;;;10.43;9.43;;;;;;;13.84;91.07;95342.97;5098698;28;20185;-73
2023/06/05 03:17:47;;;;;;;9.95;9.05;;;;;;;13.82;90.42;95345.28;5080961;28;20193;-71
2023/06/05 03:20:17;;;;;;;10.32;9.43;;;;;;;13.82;90.79;95353.59;5099001;28;20199;-71
2023/06/05 03:22:46;;;;;;;10.60;9.52;;;;;;;13.84;90.92;95354.06;5098838;28;20196;-71
2023/06/05 03:25:15;;;;;;;11.00;10.00;;;;;;;13.87;91.53;95358.03;5098580;28;20192;-71
2023/06/05 03:27:44;;;;;;;13.55;10.07;;;;;;;13.92;91.91;95358.56;5098815;28;20189;-71
2023/06/05 03:30:16;;;;;;;12.38;11.25;;;;;;;14.00;92.25;95353.94;5080762;28;20250;-72
2023/06/05 03:32:43;;;;;;;11.70;10.52;;;;;;;14.03;92.30;95350.44;5098364;28;20196;-73
2023/06/05 03:35:10;;;;;;;11.88;10.68;;;;;;;14.05;92.20;95353.66;5097475;28;20212;-72
2023/06/05 03:37:38;;;;;;;11.50;10.40;;;;;;;14.08;92.11;95357.63;5080767;28;20200;-72
2023/06/05 03:40:09;;;;;;;10.45;9.55;;;;;;;14.10;92.02;95360.88;5097685;28;20199;-72
2023/06/05 03:42:38;;;;;;;12.23;10.43;;;;;;;14.13;92.68;95362.91;5077795;28;20212;-72
2023/06/05 03:45:06;;;;;;;11.68;10.38;;;;;;;14.14;92.52;95356.97;5080069;28;20196;-72
2023/06/05 03:47:34;;;;;;;13.40;12.02;;;;;;;14.14;92.42;95345.09;5097033;28;20200;-72
2023/06/05 03:50:03;;;;;;;12.55;11.35;;;;;;;14.15;92.69;95343.91;5080280;28;20188;-72
2023/06/05 03:52:31;;;;;;;11.57;10.48;;;;;;;14.20;92.84;95351.94;5097997;28;20192;-72
2023/06/05 03:55:04;;;;;;;12.48;10.55;;;;;;;14.23;92.90;95350.38;5097584;28;20612;-72
2023/06/05 03:57:33;;;;;;;12.85;10.88;;;;;;;14.28;92.72;95356.44;5098023;28;20242;-72
2023/06/05 04:00:03;;;;;;;12.65;11.45;;;;;;;14.33;93.12;95352.53;5097587;28;20211;-72
2023/06/05 04:02:33;;;;;;;12.82;11.45;;;;;;;14.35;93.39;95359.34;5097522;28;20196;-73
2023/06/05 04:05:02;;;;;;;13.35;11.95;;;;;;;14.36;93.78;95352.59;5097506;28;20196;-72
2023/06/05 04:07:29;;;;;;;13.45;11.60;;;;;;;14.40;94.05;95355.44;5097630;28;20570;-76
2023/06/05 04:09:57;;;;;;;13.18;11.98;;;;;;;14.42;94.03;95359.44;5080495;28;20253;-76
2023/06/05 04:12:26;;;;;;;13.63;12.30;;;;;;;14.45;94.22;95358.72;5098380;28;20189;-75
2023/06/05 04:14:55;;;;;;;13.85;12.45;;;;;;;14.46;94.13;95356.75;5098630;28;20193;-75
2023/06/05 04:17:23;;;;;;;14.45;12.95;;;;;;;14.48;94.09;95365.47;5096863;28;20245;-73
2023/06/05 04:19:51;;;;;;;14.65;13.15;;;;;;;14.52;93.97;95360.03;5097870;28;20381;-72
2023/06/05 04:22:19;;;;;;;14.98;13.48;;;;;;;14.56;94.34;95361.69;5097610;28;20192;-73
2023/06/05 04:24:47;;;;;;;16.15;14.43;;;;;;;14.59;94.41;95365.69;5079509;28;20213;-73
2023/06/05 04:27:16;;;;;;;17.10;15.30;;;;;;;14.62;94.46;95356.63;5079759;28;20189;-72
2023/06/05 04:29:45;;;;;;;19.83;14.57;;;;;;;14.70;94.86;95363.88;5097350;28;20191;-71
2023/06/05 04:32:16;;;;;;;18.60;15.82;;;;;;;14.77;95.21;95352.09;5096415;28;20200;-71
2023/06/05 04:34:44;;;;;;;20.85;16.15;;;;;;;14.80;94.95;95348.56;5079447;28;20196;-71
2023/06/05 04:37:14;;;;;;;20.00;16.05;;;;;;;14.81;95.38;95348.19;5097175;28;20223;-72
2023/06/05 04:39:43;;;;;;;16.20;14.48;;;;;;;14.82;95.22;95347.03;5097367;28;20193;-75
2023/06/05 04:42:10;;;;;;;16.75;15.05;;;;;;;14.84;95.69;95341.09;5098705;28;20192;-73
2023/06/05 04:44:38;;;;;;;17.85;15.05;;;;;;;14.86;96.13;95349.88;5080665;28;20220;-73
2023/06/05 04:47:08;;;;;;;19.48;15.45;;;;;;;14.88;96.44;95353.06;5079035;28;20226;-73
2023/06/05 04:49:40;;;;;;;17.42;15.55;;;;;;;14.88;95.90;95353.06;5080773;28;20283;-73
2023/06/05 04:52:11;;;;;;;18.40;15.43;;;;;;;14.89;96.42;95349.94;5097143;28;20650;-73
2023/06/05 04:54:39;;;;;;;16.67;14.98;;;;;;;14.92;96.52;95362.25;5046829;28;20204;-72
2023/06/05 04:57:08;;;;;;;19.65;17.08;;;;;;;14.94;96.04;95351.56;5097432;28;20184;-72
2023/06/05 04:59:35;;;;;;;18.58;16.45;;;;;;;14.97;95.85;95358.38;5097187;28;20180;-72
2023/06/05 05:02:04;;;;;;;20.73;16.55;;;;;;;15.00;96.07;95357.63;5096532;28;20196;-72
2023/06/05 05:04:33;;;;;;;19.48;17.48;;;;;;;15.03;95.69;95359.63;5096870;28;20232;-73
2023/06/05 05:07:03;;;;;;;20.80;18.63;;;;;;;15.07;96.08;95357.69;5096648;28;20675;-73
2023/06/05 05:09:33;;;;;;;19.67;17.58;;;;;;;15.07;95.96;95350.19;5079593;28;20196;-72
2023/06/05 05:12:01;;;;;;;21.75;19.52;;;;;;;15.07;95.16;95352.97;5078761;28;20192;-72
2023/06/05 05:14:29;;;;;;;20.17;18.20;;;;;;;15.08;95.39;95359.31;5096013;28;20204;-72
2023/06/05 05:16:56;;;;;;;19.48;17.60;;;;;;;15.10;95.36;95351.38;5096520;28;20200;-72
2023/06/05 05:19:24;;;;;;;18.25;16.45;;;;;;;15.12;95.58;95357.38;5096432;28;20215;-72
2023/06/05 05:21:54;;;;;;;17.17;15.55;;;;;;;15.12;95.34;95354.59;5096596;28;20212;-72
2023/06/05 05:24:24;;;;;;;18.23;14.80;;;;;;;15.12;94.84;95358.19;5096767;28;20192;-73
2023/06/05 05:26:53;;;;;;;15.88;14.38;;;;;;;15.14;94.52;95349.47;5078594;28;20200;-72
2023/06/05 05:29:21;;;;;;;17.00;15.25;;;;;;;15.16;94.92;95350.69;5095909;28;20227;-72
2023/06/05 05:31:50;;;;;;;17.63;15.82;;;;;;;15.21;95.09;95348.75;5097166;28;20188;-72
2023/06/05 05:34:19;;;;;;;16.50;14.82;;;;;;;15.24;95.24;95354.38;5079082;28;20188;-72
2023/06/05 05:36:47;;;;;;;17.02;15.52;;;;;;;15.29;95.81;95347.72;5095373;28;20639;-72
2023/06/05 05:39:15;;;;;;;17.95;16.10;;;;;;;15.33;95.87;95356.88;5096082;28;20196;-72
2023/06/05 05:41:45;;;;;;;17.17;15.48;;;;;;;15.39;95.62;95349.81;5095100;28;20200;-72
2023/06/05 05:44:13;;;;;;;18.83;16.95;;;;;;;15.44;96.06;95351.47;5078751;28;20204;-72
2023/06/05 05:46:41;;;;;;;17.35;15.35;;;;;;;15.47;95.28;95345.13;5095396;28;20199;-72
2023/06/05 05:49:09;;;;;;;17.08;15.27;;;;;;;15.50;95.39;95339.63;5094797;28;20204;-71
2023/06/05 05:51:40;;;;;;;17.05;15.45;;;;;;;15.52;95.23;95340.06;5095352;28;20189;-72
2023/06/05 05:54:08;;;;;;;17.00;15.07;;;;;;;15.57;94.90;95338.91;5095622;28;20299;-73
2023/06/05 05:56:36;;;;;;;16.55;14.30;;;;;;;15.63;95.10;95338.22;5095622;28;20184;-72
2023/06/05 05:59:05;;;;;;;17.10;14.75;;;;;;;15.69;95.02;95341.50;5094966;28;20257;-73
2023/06/05 06:01:33;;;;;;;15.20;13.70;;;;;;;15.75;95.31;95337.19;5095740;28;20183;-72
2023/06/05 06:04:03;;;;;;;15.63;13.70;;;;;;;15.81;95.42;95332.88;5095859;28;20234;-72
2023/06/05 06:06:31;;;;;;;14.50;13.00;;;;;;;15.88;95.29;95332.97;5078410;28;20196;-72
2023/06/05 06:08:58;;;;;;;15.80;14.27;;;;;;;15.95;94.58;95340.59;5073469;28;20290;-72
2023/06/05 06:11:27;;;;;;;13.95;12.45;;;;;;;16.03;95.33;95339.47;5073929;28;20204;-72
2023/06/05 06:13:56;;;;;;;13.45;12.05;;;;;;;16.09;94.65;95337.97;5074462;28;20261;-73
2023/06/05 06:16:25;;;;;;;14.07;12.82;;;;;;;16.13;93.40;95336.00;5075679;28;20184;-72
2023/06/05 06:18:55;;;;;;;12.45;11.23;;;;;;;16.17;92.49;95340.81;5075515;28;20196;-72
2023/06/05 06:21:22;;;;;;;14.27;12.77;;;;;;;16.21;92.93;95345.22;5074600;28;20632;-72
2023/06/05 06:23:50;;;;;;;13.13;11.93;;;;;;;16.25;92.98;95334.94;5075374;28;20213;-72
2023/06/05 06:26:17;;;;;;;11.93;10.73;;;;;;;16.30;92.56;95339.34;5075026;28;20189;-73
2023/06/05 06:28:45;;;;;;;13.05;11.80;;;;;;;16.34;92.16;95329.84;5074564;28;20209;-73
2023/06/05 06:31:14;;;;;;;13.18;11.88;;;;;;;16.39;91.21;95336.25;5074998;28;20189;-73
2023/06/05 06:33:44;;;;;;;14.90;11.85;;;;;;;16.41;91.28;95336.66;5074077;28;20200;-73
2023/06/05 06:36:13;;;;;;;12.20;11.02;;;;;;;16.42;90.49;95333.50;5074412;28;20250;-73
2023/06/05 06:38:41;;;;;;;11.77;10.68;;;;;;;16.45;90.58;95331.91;5075582;28;20188;-72
2023/06/05 06:41:11;;;;;;;13.07;11.77;;;;;;;16.49;90.98;95332.78;5074845;28;20189;-72
2023/06/05 06:43:39;;;;;;;12.95;11.60;;;;;;;16.56;91.05;95330.03;5073823;28;20215;-72
2023/06/05 06:46:09;;;;;;;12.93;11.73;;;;;;;16.59;90.40;95327.28;5074439;28;20193;-72
2023/06/05 06:48:37;;;;;;;13.30;11.95;;;;;;;16.65;90.98;95322.16;5074136;28;20204;-72
2023/06/05 06:51:06;;;;;;;13.27;11.98;;;;;;;16.72;90.83;95322.19;5074128;28;20208;-73
2023/06/05 06:53:34;;;;;;;13.95;12.35;;;;;;;16.75;90.02;95317.88;5074046;28;20613;-73
2023/06/05 06:56:03;;;;;;;13.35;12.07;;;;;;;16.78;89.18;95306.78;5075213;28;20269;-72
2023/06/05 06:58:32;;;;;;;13.48;12.18;;;;;;;16.87;89.19;95319.56;5074931;28;20266;-72
2023/06/05 07:00:59;;;;;;;12.65;11.45;;;;;;;16.91;88.49;95314.81;5074737;28;20524;-72
2023/06/05 07:03:28;;;;;;;13.02;11.73;;;;;;;16.97;87.47;95304.91;5074799;28;20197;-73
2023/06/05 07:05:55;;;;;;;12.35;11.20;;;;;;;16.99;86.74;95316.44;5074751;28;20224;-72
2023/06/05 07:08:23;;;;;;;15.90;12.98;;;;;;;17.03;87.37;95314.47;5088743;28;20240;-72
2023/06/05 07:10:55;;;;;;;13.38;12.07;;;;;;;17.07;86.74;95318.91;5094047;28;20204;-72
2023/06/05 07:13:22;;;;;;;14.93;13.52;;;;;;;17.09;86.62;95310.94;5094973;28;20204;-73
2023/06/05 07:15:50;;;;;;;20.67;18.48;;;;;;;17.14;86.45;95315.34;5094819;28;20249;-72
2023/06/05 07:18:19;;;;;;;23.13;20.70;;;;;;;17.17;85.46;95314.56;5094693;28;20211;-72
2023/06/05 07:20:47;;;;;;;18.15;16.35;;;;;;;17.22;85.01;95310.63;5077248;28;20291;-73
2023/06/05 07:23:17;;;;;;;16.13;14.52;;;;;;;17.28;86.59;95315.44;5097258;28;20265;-73
2023/06/05 07:25:48;;;;;;;16.20;14.05;;;;;;;17.31;85.57;95311.84;5064787;28;20209;-72
2023/06/05 07:28:16;;;;;;;15.15;13.65;;;;;;;17.34;84.81;95321.44;5081227;28;20196;-73
2023/06/05 07:30:45;;;;;;;18.58;16.85;;;;;;;17.36;84.49;95321.84;5080709;28;20254;-72
2023/06/05 07:33:13;;;;;;;17.13;14.27;;;;;;;17.37;83.98;95323.44;5098112;28;20192;-72
2023/06/05 07:35:41;;;;;;;14.95;13.35;;;;;;;17.40;84.45;95327.44;5098382;28;20193;-72
2023/06/05 07:38:10;;;;;;;18.45;13.38;;;;;;;17.44;85.24;95331.03;5098461;28;20184;-73
2023/06/05 07:40:38;;;;;;;15.48;13.85;;;;;;;17.44;84.04;95331.84;5098128;28;20511;-72
2023/06/05 07:43:13;;;;;;;16.60;14.32;;;;;;;17.47;84.38;95336.63;5081013;28;20634;-72
2023/06/05 07:45:41;;;;;;;18.27;15.77;;;;;;;17.51;84.56;95340.25;5098374;28;20297;-72
2023/06/05 07:48:09;;;;;;;16.38;14.48;;;;;;;17.55;83.49;95335.47;5098537;28;20177;-73
2023/06/05 07:50:37;;;;;;;16.17;14.35;;;;;;;17.61;82.70;95344.28;5097730;28;20208;-72
2023/06/05 07:53:05;;;;;;;19.33;17.40;;;;;;;17.64;83.07;95335.09;5080660;28;20209;-73
2023/06/05 07:55:33;;;;;;;17.80;15.77;;;;;;;17.71;82.78;95349.06;5098911;28;20193;-72
2023/06/05 07:58:01;;;;;;;17.05;15.25;;;;;;;17.76;81.40;95345.16;5098710;28;20197;-73
2023/06/05 08:00:34;;;;;;;17.13;15.32;;;;;;;17.88;82.97;95338.44;5080710;28;20200;-72
2023/06/05 08:03:03;;;;;;;15.73;13.98;;;;;;;17.94;82.42;95343.22;5097574;28;20609;-72
2023/06/05 08:05:31;;;;;;;16.80;14.48;;;;;;;17.92;81.10;95342.81;5080405;28;20303;-72
2023/06/05 08:08:01;;;;;;;16.75;14.85;;;;;;;17.92;81.38;95344.81;5077134;28;20236;-73
2023/06/05 08:10:28;;;;;;;15.75;14.05;;;;;;;17.90;80.57;95345.22;5077516;28;20621;-74
2023/06/05 08:12:56;;;;;;;17.55;14.35;;;;;;;17.95;81.27;95344.03;5076799;28;20247;-72
2023/06/05 08:15:24;;;;;;;14.63;13.15;;;;;;;17.96;80.91;95345.63;5076487;28;20200;-72
2023/06/05 08:17:58;;;;;;;16.05;14.23;;;;;;;18.02;82.46;95350.44;5077807;28;20189;-72
2023/06/05 08:20:26;;;;;;;16.23;14.35;;;;;;;18.07;81.80;95349.25;5077337;28;20196;-72
2023/06/05 08:22:57;;;;;;;15.93;14.30;;;;;;;18.14;80.45;95348.47;5076628;28;20201;-72
2023/06/05 08:25:26;;;;;;;16.27;13.80;;;;;;;18.26;81.54;95348.91;5076581;28;20208;-73
2023/06/05 08:27:53;;;;;;;16.67;14.32;;;;;;;18.31;80.12;95352.50;5077127;28;20223;-72
2023/06/05 08:30:21;;;;;;;18.17;14.90;;;;;;;18.43;81.28;95357.69;5077248;28;20185;-73
2023/06/05 08:32:48;;;;;;;17.08;14.07;;;;;;;18.48;79.55;95362.88;5076329;28;20240;-72
2023/06/05 08:35:17;;;;;;;16.98;14.25;;;;;;;18.44;79.27;95362.88;5076731;28;20227;-72
2023/06/05 08:37:44;;;;;;;16.95;14.57;;;;;;;18.44;79.71;95359.28;5077373;28;20188;-73
2023/06/05 08:40:12;;;;;;;17.00;13.90;;;;;;;18.47;78.72;95358.50;5077556;28;20177;-73
2023/06/05 08:42:41;;;;;;;17.33;14.77;;;;;;;18.50;77.57;95360.50;5076866;28;20205;-72
2023/06/05 08:45:11;;;;;;;15.30;13.63;;;;;;;18.47;77.57;95369.66;5076643;28;20220;-72
2023/06/05 08:47:41;;;;;;;15.93;14.05;;;;;;;18.42;77.87;95365.28;5076969;28;20232;-72
2023/06/05 08:50:11;;;;;;;15.85;13.35;;;;;;;18.44;79.09;95362.06;5077452;28;20203;-72
2023/06/05 08:52:49;;;;;;;16.73;14.02;;;;;;;18.43;77.02;95357.69;5076502;28;20208;-73
2023/06/05 08:55:18;;;;;;;14.35;12.93;;;;;;;18.41;77.30;95355.31;5076343;28;20209;-72
2023/06/05 08:57:46;;;;;;;16.20;13.32;;;;;;;18.44;78.09;95354.50;5076351;28;20209;-72
2023/06/05 09:00:14;;;;;;;14.63;13.13;;;;;;;18.46;77.39;95357.69;5076200;28;20621;-72
2023/06/05 09:02:46;;;;;;;16.17;13.13;;;;;;;18.47;77.65;95355.69;5075746;28;20199;-72
2023/06/05 09:05:14;;;;;;;16.15;13.52;;;;;;;18.58;79.65;95350.13;5076849;28;20217;-72
2023/06/05 09:07:43;;;;;;;15.60;13.38;;;;;;;18.61;77.32;95349.34;5084464;28;20674;-74
2023/06/05 09:10:25;;;;;;;14.18;12.13;;;;;;;18.69;77.37;95348.94;5096580;28;20234;-72
2023/06/05 09:12:58;;;;;;;13.95;12.55;;;;;;;18.70;77.41;95352.50;5096993;28;20193;-72
2023/06/05 09:15:30;;;;;;;14.90;13.00;;;;;;;18.80;77.46;95360.13;5078991;28;20207;-72
2023/06/05 09:18:14;;;;;;;15.90;13.05;;;;;;;18.98;77.53;95352.53;5097033;28;20239;-73
2023/06/05 09:20:43;;;;;;;15.30;13.55;;;;;;;19.09;76.67;95360.13;5079350;28;20195;-72
2023/06/05 09:23:26;;;;;;;14.23;12.73;;;;;;;19.08;75.81;95353.75;5097111;28;20181;-73
2023/06/05 09:25:56;;;;;;;15.55;12.80;;;;;;;19.18;75.58;95361.31;5096910;28;20727;-73
2023/06/05 09:28:24;;;;;;;14.32;12.27;;;;;;;19.28;73.79;95356.91;5097093;28;20189;-72
2023/06/05 09:30:59;;;;;;;15.07;12.77;;;;;;;19.42;75.93;95354.06;5079233;28;20204;-73
2023/06/05 09:33:28;;;;;;;16.13;13.38;;;;;;;19.65;75.18;95348.06;5096701;28;20188;-72
2023/06/05 09:36:09;;;;;;;14.32;12.82;;;;;;;19.75;76.99;95352.00;5096785;28;20185;-72
2023/06/05 09:38:42;;;;;;;16.27;14.52;;;;;;;19.92;76.15;95345.53;5096459;28;20196;-72
2023/06/05 09:41:14;;;;;;;15.65;13.50;;;;;;;20.02;73.60;95346.69;5096740;28;20191;-72
2023/06/05 09:43:42;;;;;;;15.07;13.52;;;;;;;20.09;73.31;95343.06;5095732;28;20204;-72
2023/06/05 09:46:11;;;;;;;13.88;12.48;;;;;;;20.18;73.08;95338.59;5095981;28;20272;-72
2023/06/05 09:48:39;;;;;;;14.63;13.02;;;;;;;20.14;73.86;95332.22;5079064;28;20565;-72
2023/06/05 09:51:12;;;;;;;14.73;12.85;;;;;;;20.11;72.59;95333.03;5096878;28;20295;-71
2023/06/05 09:53:45;;;;;;;14.57;12.38;;;;;;;19.98;70.24;95336.72;5097440;28;20184;-71
2023/06/05 09:56:14;;;;;;;15.43;12.93;;;;;;;19.85;70.04;95331.56;5079273;28;20231;-72
2023/06/05 09:58:46;;;;;;;13.82;12.43;;;;;;;19.79;70.36;95332.41;5079154;28;20192;-72
2023/06/05 10:01:17;;;;;;;15.60;12.48;;;;;;;19.67;71.27;95323.25;5096428;28;20246;-72
2023/06/05 10:04:11;;;;;;;16.13;12.65;;;;;;;19.74;73.55;95324.44;5096715;28;20207;-72
2023/06/05 10:06:40;;;;;;;16.60;13.07;;;;;;;19.65;72.20;95328.47;5095386;28;20231;-72
2023/06/05 10:09:12;;;;;;;13.57;12.18;;;;;;;19.58;73.62;95330.47;5096690;28;20236;-73
2023/06/05 10:11:42;;;;;;;12.75;11.30;;;;;;;19.49;72.91;95336.47;5096692;28;20275;-72
2023/06/05 10:14:10;;;;;;;14.57;11.70;;;;;;;19.42;72.63;95328.91;5079614;28;20200;-72
2023/06/05 10:16:40;;;;;;;12.40;11.15;;;;;;;19.45;72.07;95321.72;5096338;28;20197;-73
2023/06/05 10:19:08;;;;;;;12.85;11.32;;;;;;;19.53;74.20;95320.47;5096782;28;20216;-72
2023/06/05 10:21:36;;;;;;;12.48;11.23;;;;;;;19.59;72.94;95335.66;5096847;28;20235;-72
2023/06/05 10:24:06;;;;;;;12.98;11.70;;;;;;;19.75;73.86;95326.81;5096828;28;20588;-73
2023/06/05 10:26:53;;;;;;;12.15;10.95;;;;;;;19.95;71.94;95321.53;5097057;28;20204;-72
2023/06/05 10:29:36;;;;;;;12.52;10.68;;;;;;;20.20;72.69;95327.81;5097355;28;20196;-73
2023/06/05 10:32:08;;;;;;;12.68;11.38;;;;;;;20.38;71.97;95321.28;5096518;28;20223;-73
2023/06/05 10:34:48;;;;;;;13.70;11.27;;;;;;;20.58;71.86;95322.38;5078814;28;20196;-73
2023/06/05 10:37:40;;;;;;;14.43;12.27;;;;;;;20.77;72.04;95314.59;5096588;28;20180;-72
2023/06/05 10:40:10;;;;;;;12.75;11.45;;;;;;;20.94;71.21;95310.06;5096748;28;20180;-73
2023/06/05 10:42:40;;;;;;;14.32;12.32;;;;;;;21.01;71.62;95305.19;5079319;28;20196;-73
2023/06/05 10:45:09;;;;;;;14.50;11.50;;;;;;;21.08;73.14;95307.13;5096369;28;20219;-72
2023/06/05 10:47:54;;;;;;;12.80;11.60;;;;;;;21.15;71.30;95298.66;5096914;28;20192;-73
2023/06/05 10:50:32;;;;;;;12.00;10.48;;;;;;;21.20;68.73;95301.00;5096060;28;20243;-72
2023/06/05 10:52:59;;;;;;;11.93;10.73;;;;;;;21.19;68.78;95304.22;5096337;28;20200;-72
2023/06/05 10:55:28;;;;;;;10.13;9.10;;;;;;;21.06;66.69;95303.94;5095468;28;20189;-72
2023/06/05 10:58:14;;;;;;;10.40;9.15;;;;;;;20.95;67.42;95298.44;5082170;28;20202;-72
2023/06/05 11:01:16;;;;;;;10.38;9.13;;;;;;;20.91;68.56;95289.25;5082751;28;20199;-71
2023/06/05 11:03:57;;;;;;;10.35;9.27;;;;;;;21.05;69.07;95291.94;5094549;28;20245;-72
2023/06/05 11:06:26;;;;;;;10.50;9.50;;;;;;;21.16;67.42;95289.81;5100718;28;20204;-72
2023/06/05 11:09:14;;;;;;;9.82;8.68;;;;;;;21.28;66.47;95291.31;5079108;28;20232;-71
2023/06/05 11:11:59;;;;;;;10.02;9.02;;;;;;;21.31;65.13;95289.66;5080111;28;20205;-72
2023/06/05 11:14:46;;;;;;;10.07;9.07;;;;;;;21.34;65.10;95281.25;5079276;28;20228;-72
2023/06/05 11:17:30;;;;;;;10.02;8.85;;;;;;;21.41;65.80;95279.56;5079478;28;20201;-72
2023/06/05 11:19:58;;;;;;;10.75;9.38;;;;;;;21.43;66.24;95280.75;5080200;28;20192;-71
2023/06/05 11:22:27;;;;;;;9.32;8.35;;;;;;;21.46;65.00;95281.91;5080126;28;20189;-72
2023/06/05 11:25:30;;;;;;;9.23;8.27;;;;;;;21.58;64.79;95278.56;5080123;28;20263;-71
2023/06/05 11:27:59;;;;;;;9.13;8.10;;;;;;;21.65;65.20;95272.88;5078991;28;20295;-71
2023/06/05 11:30:33;;;;;;;9.70;7.88;;;;;;;21.77;64.68;95275.13;5079494;28;20221;-71
2023/06/05 11:33:08;;;;;;;9.63;8.15;;;;;;;21.78;62.49;95270.28;5079086;28;20220;-73
2023/06/05 11:35:39;;;;;;;9.27;8.38;;;;;;;21.78;63.95;95270.28;5078141;28;20204;-72